• Join FlightAware (Why Join?)
  • Login
  • US Flag 
 
07:31PM EST


 

Airport Tracker/Info


-or-


 

Live Flight TrackerFlight Track Log ✈ N552XJ ✈ 19-Apr-2013 ✈ KSRQ - KMDW

Flight Track Log - Related Links

Times and Time Zones

All times are in EDT time to prevent confusion due to time zone crossing. See the N552XJ flight status page for this flight to view local times or setup timezone preferences in your user account.

Time Position Orientation Groundspeed Altitude Reporting Facility
EDT Latitude Longitude Course Direction KTS MPH feet Rate Location/Type
03:28PM 27.3833 -82.5500 119° Southeast 158 182 1,100  Level Tampa TRACON
03:29PM 27.3667 -82.5167 119° Southeast 215 247 3,000 3,120 Climbing Tampa TRACON
03:30PM 27.3000 -82.5167 180° South 247 284 6,800 3,360 Climbing Tampa TRACON
03:32PM 27.3781 -82.6631 301° West 236 272 13,100 2,940 Climbing Miami Center
03:33PM 27.4431 -82.7600 307° West 301 346 15,600 1,860 Climbing Miami Center
03:34PM 27.5458 -82.7933 344° North 340 391 16,900 1,800 Climbing Miami Center
03:36PM 27.7889 -82.7942 360° North 384 442 21,500 2,040 Climbing Jacksonville Center
03:37PM 27.8892 -82.8456 336° Northwest 384 442 23,700 1,740 Climbing Jacksonville Center
03:38PM 27.9997 -82.8856 342° North 391 450 25,000 600 Climbing Jacksonville Center
03:39PM 28.1208 -82.9114 349° North 418 481 25,000  Level Jacksonville Center
03:40PM 28.2439 -82.9444 347° North 435 501 25,000 420 Level Jacksonville Center
03:41PM 28.3647 -82.9822 345° North 435 501 25,900 1,020 Climbing Jacksonville Center
03:42PM 28.4817 -83.0106 348° North 435 501 27,100 1,680 Climbing Jacksonville Center
03:43PM 28.6028 -83.0392 348° North 435 501 29,300 2,100 Climbing Jacksonville Center
03:44PM 28.7217 -83.0700 347° North 435 501 31,400 2,040 Climbing Jacksonville Center
03:45PM 28.8239 -83.1294 333° Northwest 430 495 33,500 2,100 Climbing Jacksonville Center
03:46PM 28.9133 -83.2081 322° Northwest 411 473 35,600 1,920 Climbing Jacksonville Center
03:47PM 29.0072 -83.2794 326° Northwest 406 467 37,400 1,740 Climbing Jacksonville Center
03:48PM 29.1175 -83.3108 346° North 406 467 39,200 1,560 Climbing Jacksonville Center
03:49PM 29.2322 -83.3400 347° North 406 467 40,500 900 Climbing Jacksonville Center
03:50PM 29.3469 -83.3692 348° North 406 467 41,100 540 Climbing Jacksonville Center
03:51PM 29.4639 -83.3936 350° North 420 483 41,600 480 Climbing Jacksonville Center
03:52PM 29.5972 -83.4275 348° North 434 499 42,100 540 Climbing Jacksonville Center
03:53PM 29.7244 -83.4547 349° North 445 512 42,700 540 Climbing Jacksonville Center
03:54PM 29.8475 -83.4817 349° North 451 519 43,300 600 Climbing Jacksonville Center
03:55PM 29.9728 -83.5111 348° North 451 519 43,900 600 Climbing Jacksonville Center
03:56PM 30.0978 -83.5383 349° North 451 519 44,600 540 Climbing Jacksonville Center
03:57PM 30.2189 -83.5656 349° North 446 513 45,000 180 Climbing Jacksonville Center
03:58PM 30.3439 -83.5931 349° North 446 513 45,000  Level Jacksonville Center
03:59PM 30.4692 -83.6228 348° North 451 519 45,000  Level Jacksonville Center
04:00PM 30.5919 -83.6528 348° North 451 519 45,000  Level Jacksonville Center
04:01PM 30.7192 -83.6828 349° North 451 519 45,000  Level Jacksonville Center
04:02PM 30.8464 -83.7128 349° North 457 526 45,000  Level Jacksonville Center
04:03PM 30.9714 -83.7431 348° North 457 526 45,000  Level Jacksonville Center
04:04PM 31.0986 -83.7733 348° North 457 526 45,000  Level Jacksonville Center
04:06PM 31.3103 -83.8250 348° North 482 555 45,000  Level Atlanta Center
04:07PM 31.4375 -83.8564 348° North 477 549 45,000  Level Atlanta Center
04:08PM 31.5650 -83.8903 347° North 470 541 45,000  Level Atlanta Center
04:09PM 31.6964 -83.9217 349° North 470 541 45,000  Level Atlanta Center
04:10PM 31.8406 -83.9533 349° North 475 547 45,000  Level Atlanta Center
04:11PM 31.9700 -83.9825 349° North 468 539 45,000  Level Atlanta Center
04:12PM 32.0953 -84.0119 349° North 463 533 45,000  Level Atlanta Center
04:13PM 32.2244 -84.0436 348° North 468 539 45,000  Level Atlanta Center
04:14PM 32.3539 -84.0733 349° North 468 539 45,000  Level Atlanta Center
04:15PM 32.4833 -84.1053 348° North 468 539 45,000  Level Atlanta Center
04:16PM 32.6108 -84.1375 348° North 468 539 45,000  Level Atlanta Center
04:17PM 32.7422 -84.1697 348° North 468 539 45,000  Level Atlanta Center
04:18PM 32.8717 -84.2019 348° North 473 544 45,000  Level Atlanta Center
04:19PM 32.9906 -84.2319 348° North 473 544 45,000  Level Atlanta Center
04:20PM 33.1219 -84.2644 348° North 474 545 45,000  Level Atlanta Center
04:21PM 33.2514 -84.2972 348° North 474 545 45,000  Level Atlanta Center
04:22PM 33.3847 -84.3275 349° North 480 552 45,000  Level Atlanta Center
04:23PM 33.5161 -84.3628 347° North 480 552 45,000  Level Atlanta Center
04:24PM 33.6581 -84.4008 347° North 485 558 45,000  Level Atlanta Center
04:25PM 33.7936 -84.4339 349° North 490 564 45,000  Level Atlanta Center
04:26PM 33.9292 -84.4694 348° North 490 564 45,000  Level Atlanta Center
04:27PM 34.0625 -84.5053 347° North 485 558 45,000  Level Atlanta Center
04:28PM 34.1961 -84.5311 351° North 514 592 45,000  Level Atlanta Center
04:29PM 34.3294 -84.5669 347° North 508 585 45,000  Level Atlanta Center
04:30PM 34.4672 -84.6006 349° North 502 578 45,000  Level Atlanta Center
04:31PM 34.6047 -84.6344 349° North 502 578 45,000  Level Atlanta Center
04:32PM 34.7361 -84.6733 346° North 496 571 45,000  Level Atlanta Center
04:33PM 34.8736 -84.7072 349° North 491 565 45,000  Level Atlanta Center
04:35PM 35.1486 -84.7806 348° North 496 571 45,000  Level Atlanta Center
04:36PM 35.2881 -84.8147 349° North 501 577 45,000  Level Atlanta Center
04:37PM 35.4256 -84.8517 348° North 506 582 45,000  Level Atlanta Center
04:38PM 35.5650 -84.8889 348° North 506 582 45,000  Level Atlanta Center
04:39PM 35.7006 -84.9261 347° North 506 582 45,000  Level Atlanta Center
04:40PM 35.8422 -84.9583 350° North 512 589 45,000  Level Atlanta Center
04:42PM 36.1850 -85.0500 348° North 503 579 45,000  Level Indianapolis Center
04:43PM 36.3253 -85.0836 349° North 510 587 45,000  Level Indianapolis Center
04:44PM 36.4669 -85.1133 350° North 514 592 45,000  Level Indianapolis Center
04:45PM 36.6072 -85.1447 350° North 513 590 45,000  Level Indianapolis Center
04:46PM 36.7486 -85.1761 350° North 515 593 45,000  Level Indianapolis Center
04:47PM 36.9175 -85.2139 350° North 512 589 45,000  Level Indianapolis Center
04:48PM 37.0408 -85.2406 350° North 512 589 45,000  Level Indianapolis Center
04:49PM 37.2056 -85.2789 349° North 512 589 45,000  Level Indianapolis Center
04:50PM 37.3472 -85.3092 350° North 514 592 45,000  Level Indianapolis Center
04:52PM 37.4892 -85.3408 350° North 514 592 45,000  Level Indianapolis Center
04:53PM 37.6283 -85.3731 350° North 508 585 45,000  Level Indianapolis Center
04:54PM 37.7675 -85.4053 350° North 506 582 45,000 -60 Level Indianapolis Center
04:55PM 37.9133 -85.4364 350° North 515 593 44,900 -540 Descending Indianapolis Center
04:56PM 38.0497 -85.4672 350° North 499 574 43,900 -1,020 Descending Indianapolis Center
04:57PM 38.1856 -85.4997 349° North 496 571 42,900 -1,500 Descending Indianapolis Center
04:58PM 38.3225 -85.5319 350° North 498 573 40,900 -2,220 Descending Indianapolis Center
04:59PM 38.4925 -85.5706 350° North 513 590 38,400 -2,160 Descending Indianapolis Center
05:00PM 38.6339 -85.6019 350° North 514 592 36,500 -1,980 Descending Indianapolis Center
05:01PM 38.7778 -85.6367 349° North 525 604 34,400 -2,040 Descending Indianapolis Center
05:02PM 38.9253 -85.6700 350° North 535 616 32,400 -1,980 Descending Indianapolis Center
05:03PM 39.0756 -85.7075 349° North 548 631 30,400 -1,200 Descending Indianapolis Center
05:04PM 39.2175 -85.7389 350° North 524 603 30,000 -240 Descending Indianapolis Center
05:05PM 39.3583 -85.7725 350° North 514 592 30,000 -240 Level Indianapolis Center
05:06PM 39.5003 -85.8086 349° North 517 595 29,600 -1,140 Descending Indianapolis Center
05:07PM 39.6731 -85.8500 350° North 523 602 27,700 -1,680 Descending Indianapolis Center
05:08PM 39.8100 -85.8822 350° North 524 603 26,200 -1,500 Descending Indianapolis Center
05:09PM 39.9492 -85.9158 350° North 511 588 24,700 -1,080 Descending Indianapolis Center
05:10PM 40.0775 -85.9581 346° North 478 550 24,000 -360 Descending Indianapolis Center
05:11PM 40.1844 -86.0236 335° Northwest 432 497 24,000 -180 Level Indianapolis Center
05:11PM 40.2247 -86.0483 335° Northwest 421 484 23,800 -840 Descending Chicago Center
05:13PM 40.3317 -86.1167 334° Northwest 427 491 22,800 -1,080 Descending Chicago Center
05:14PM 40.4606 -86.1961 335° Northwest 426 490 21,600 -1,140 Descending Chicago Center
05:15PM 40.5681 -86.2647 334° Northwest 429 494 20,500 -1,440 Descending Chicago Center
05:16PM 40.6753 -86.3317 335° Northwest 426 490 18,700 -1,680 Descending Chicago Center
05:17PM 40.7761 -86.3953 334° Northwest 406 467 17,100 -1,620 Descending Chicago Center
05:18PM 40.8739 -86.4589 334° Northwest 393 452 15,400 -1,680 Descending Chicago Center
05:19PM 40.9675 -86.5172 335° Northwest 374 430 13,700 -1,560 Descending Chicago Center
05:20PM 41.0561 -86.5753 334° Northwest 358 412 12,200 -1,320 Descending Chicago Center
05:21PM 41.1494 -86.6539 328° Northwest 333 383 11,000 -600 Descending Chicago Center
05:22PM 41.2131 -86.7397 315° West 322 371 11,000  Level Chicago Center
05:23PM 41.2725 -86.8206 314° West 312 359 11,000 -120 Level Chicago Center
05:24PM 41.3239 -86.8903 314° West 278 320 10,800 -780 Descending Chicago Center
05:25PM 41.3731 -86.9597 313° West 263 303 9,500 -1,320 Descending Chicago Center
05:26PM 41.4308 -87.0403 314° West 255 293 8,100 -1,260 Descending Chicago Center
05:27PM 41.4569 -87.1153 295° West 231 266 6,900 -1,020 Descending Chicago Center
05:28PM 41.4628 -87.2019 275° West 233 268 6,000 -780 Descending Chicago Center
05:29PM 41.4928 -87.2717 300° West 220 253 5,300 -1,020 Descending Chicago Center
05:30PM 41.5303 -87.3389 307° West 226 260 4,000 -660 Descending Chicago Center
05:31PM 41.5669 -87.4047 307° West 206 237 4,000  Level Chicago Center
05:32PM 41.5956 -87.4572 306° West 190 219 4,000  Level Chicago Center
05:33PM 41.6250 -87.5108 306° West 183 211 4,000  Level Chicago Center
05:34PM 41.6508 -87.5583 306° West 174 200 4,000 -120 Level Chicago Center
05:35PM 41.6761 -87.5992 310° West 159 183 3,800 -600 Descending Chicago Center
05:36PM 41.7000 -87.6333 313° West 162 186 3,000 -1,020 Descending Chicago TRACON
05:37PM 41.7333 -87.6833 312° West 161 185 2,100 -780 Descending Chicago TRACON
05:38PM 41.7833 -87.7000 346° North 171 197 1,400 -480 Descending Chicago TRACON
05:39PM 41.8000 -87.7167 323° Northwest 130 150 1,200 -240 Descending Chicago TRACON